Flight Track Log - Related Links

Times and Time Zones

All times are in EDT time to prevent confusion due to time zone crossing. See the SWA1524 flight status page for this flight to view local times or setup timezone preferences in your user account.

Time Position Orientation Groundspeed Altitude Reporting Facility
EDT Latitude Longitude Course Direction KTS MPH feet Rate Location/Type
Fri 12:23:27 PM 38.8833 -77.0667 322° Northwest 168 193 1,600  Level Potomac TRACON
Fri 12:24:27 PM 38.9333 -77.1167 322° Northwest 242 278 3,900 2,842 Climbing Potomac TRACON
Fri 12:25:21 PM 38.9667 -77.1667 311° West 248 285 7,000 3,579 Climbing Potomac TRACON
Fri 12:26:21 PM 38.9833 -77.2667 282° West 269 310 10,700 3,015 Climbing Potomac TRACON
Fri 12:28:40 PM 39.0064 -77.5256 277° West 334 384 17,000 2,714 Climbing Washington Center
Fri 12:29:40 PM 38.9978 -77.6561 265° West 368 423 19,700 2,600 Climbing Washington Center
Fri 12:30:40 PM 38.9894 -77.7736 265° West 373 429 22,200 2,331 Climbing Washington Center
Fri 12:31:41 PM 38.9803 -77.9308 266° West 385 443 24,400 2,083 Climbing Washington Center
Fri 12:32:41 PM 38.9692 -78.0772 264° West 408 470 26,400 1,983 Climbing Washington Center
Fri 12:33:39 PM 38.9681 -78.2214 269° West 413 475 28,300 1,916 Climbing Washington Center
Fri 12:34:40 PM 38.9792 -78.3739 275° West 419 482 30,200 2,033 Climbing Washington Center
Fri 12:35:40 PM 38.9903 -78.5239 275° West 424 488 32,400 1,966 Climbing Washington Center
Fri 12:36:39 PM 38.9992 -78.6714 274° West 424 488 34,100 1,664 Climbing Washington Center
Fri 12:37:39 PM 39.0100 -78.8161 276° West 424 488 35,700 1,574 Climbing Washington Center
Fri 12:38:41 PM 39.0183 -78.9606 274° West 419 482 37,300 1,131 Climbing Washington Center
Fri 12:39:41 PM 39.0289 -79.1028 276° West 414 476 38,000 356 Climbing Washington Center
Fri 12:40:39 PM 39.0372 -79.2475 274° West 414 476 38,000  Level Washington Center
Fri 12:41:39 PM 39.0453 -79.3897 274° West 407 468 38,000  Level Washington Center
Fri 12:42:40 PM 39.0536 -79.5183 275° West 407 468 38,000  Level Washington Center
Fri 12:43:40 PM 39.0614 -79.6631 274° West 407 468 38,000  Level Washington Center
Fri 12:44:40 PM 39.0708 -79.8108 275° West 407 468 38,000  Level Washington Center
Fri 12:45:39 PM 39.0761 -79.9528 273° West 407 468 38,000  Level Washington Center
Fri 12:47:42 PM 39.0914 -80.2656 274° West 411 473 38,000  Level Indianapolis Center
Fri 12:48:44 PM 39.0972 -80.4106 273° West 407 468 38,000  Level Indianapolis Center
Fri 12:49:46 PM 39.1047 -80.5564 274° West 408 470 38,000  Level Indianapolis Center
Fri 12:50:48 PM 39.1114 -80.7033 273° West 413 475 38,000  Level Indianapolis Center
Fri 12:51:50 PM 39.1181 -80.8486 273° West 409 471 38,000  Level Indianapolis Center
Fri 12:52:52 PM 39.1247 -80.9950 273° West 410 472 38,000  Level Indianapolis Center
Fri 12:53:54 PM 39.1414 -81.1711 277° West 415 478 38,000  Level Indianapolis Center
Fri 12:54:56 PM 39.1642 -81.3153 282° West 414 476 38,000  Level Indianapolis Center
Fri 12:55:58 PM 39.1853 -81.4603 281° West 414 476 38,000  Level Indianapolis Center
Fri 12:57:00 PM 39.2072 -81.6064 281° West 418 481 38,000  Level Indianapolis Center
Fri 12:58:02 PM 39.2289 -81.7508 281° West 414 476 38,000  Level Indianapolis Center
Fri 12:59:04 PM 39.2547 -81.9261 281° West 416 479 38,000  Level Indianapolis Center
Fri 01:00:06 PM 39.2756 -82.0725 280° West 418 481 38,000  Level Indianapolis Center
Fri 01:01:08 PM 39.2972 -82.2167 281° West 413 475 38,000  Level Indianapolis Center
Fri 01:02:11 PM 39.3172 -82.3636 280° West 416 479 38,000  Level Indianapolis Center
Fri 01:03:13 PM 39.3392 -82.5144 281° West 412 474 38,000  Level Indianapolis Center
Fri 01:04:15 PM 39.3592 -82.6628 280° West 414 476 38,000  Level Indianapolis Center
Fri 01:05:17 PM 39.3800 -82.8111 280° West 414 476 38,000  Level Indianapolis Center
Fri 01:06:19 PM 39.4006 -82.9597 280° West 418 481 38,000  Level Indianapolis Center
Fri 01:07:21 PM 39.4244 -83.1342 280° West 417 480 38,000  Level Indianapolis Center
Fri 01:08:23 PM 39.4442 -83.2836 280° West 418 481 38,000  Level Indianapolis Center
Fri 01:09:25 PM 39.4636 -83.4336 280° West 416 479 38,000  Level Indianapolis Center
Fri 01:10:27 PM 39.4683 -83.5869 272° West 421 484 38,000  Level Indianapolis Center
Fri 01:11:29 PM 39.4689 -83.7378 270° West 416 479 38,000  Level Indianapolis Center
Fri 01:12:31 PM 39.4697 -83.8908 270° West 418 481 38,000  Level Indianapolis Center
Fri 01:13:33 PM 39.4694 -84.0428 270° West 417 480 38,000  Level Indianapolis Center
Fri 01:14:35 PM 39.4683 -84.1961 270° West 420 483 38,000  Level Indianapolis Center
Fri 01:15:37 PM 39.4675 -84.3494 270° West 422 486 38,000  Level Indianapolis Center
Fri 01:16:39 PM 39.4675 -84.5267 270° West 420 483 38,000  Level Indianapolis Center
Fri 01:17:41 PM 39.4658 -84.6792 269° West 420 483 38,000  Level Indianapolis Center
Fri 01:18:43 PM 39.4647 -84.8331 270° West 422 486 38,000  Level Indianapolis Center
Fri 01:19:45 PM 39.4625 -84.9850 269° West 423 487 38,000  Level Indianapolis Center
Fri 01:20:47 PM 39.4611 -85.1386 269° West 426 490 38,000  Level Indianapolis Center
Fri 01:21:49 PM 39.4597 -85.2911 269° West 425 489 38,000  Level Indianapolis Center
Fri 01:22:52 PM 39.4569 -85.4444 269° West 426 490 38,000  Level Indianapolis Center
Fri 01:23:54 PM 39.4550 -85.6294 269° West 429 494 38,000 -145 Level Indianapolis Center
Fri 01:24:56 PM 39.4517 -85.7836 268° West 429 494 37,700 -629 Descending Indianapolis Center
Fri 01:25:58 PM 39.4483 -85.9386 268° West 429 494 36,700 -823 Descending Indianapolis Center
Fri 01:27:00 PM 39.4461 -86.0956 269° West 433 498 36,000 -339 Descending Indianapolis Center
Fri 01:28:02 PM 39.4419 -86.2522 268° West 433 498 36,000  Level Indianapolis Center
Fri 01:29:04 PM 39.4383 -86.4097 268° West 434 499 36,000  Level Indianapolis Center
Fri 01:30:06 PM 39.4356 -86.5653 269° West 431 496 36,000  Level Indianapolis Center
Fri 01:31:08 PM 39.4319 -86.7211 268° West 431 496 36,000  Level Indianapolis Center
Fri 01:32:10 PM 39.4272 -86.9083 268° West 432 497 36,000  Level Indianapolis Center
Fri 01:33:12 PM 39.4219 -87.0631 268° West 433 498 36,000  Level Indianapolis Center
Fri 01:34:14 PM 39.4186 -87.2194 268° West 434 499 36,000 -435 Level Indianapolis Center
Fri 01:35:16 PM 39.4147 -87.3750 268° West 434 499 35,100 -871 Descending Indianapolis Center
Fri 01:36:18 PM 39.4092 -87.5344 267° West 442 509 34,200 -919 Descending Indianapolis Center
Fri 01:37:20 PM 39.4031 -87.6956 267° West 448 516 33,200 -1,016 Descending Indianapolis Center
Fri 01:38:22 PM 39.3969 -87.8894 268° West 449 517 32,100 -981 Descending Indianapolis Center
Fri 01:39:04 PM 39.3936 -87.9869 267° West 449 517 31,500 -923 Descending Kansas City Center
Fri 01:40:06 PM 39.3664 -88.1464 258° West 454 522 30,500 -720 Descending Kansas City Center
Fri 01:41:09 PM 39.3264 -88.2989 251° West 452 520 30,000 -240 Descending Kansas City Center
Fri 01:42:11 PM 39.2781 -88.4831 251° West 450 518 30,000 -290 Level Kansas City Center
Fri 01:43:13 PM 39.2411 -88.6178 251° West 456 525 29,400 -968 Descending Kansas City Center
Fri 01:44:15 PM 39.1928 -88.7928 250° West 438 504 28,000 -1,161 Descending Kansas City Center
Fri 01:45:17 PM 39.1661 -88.9336 256° West 416 479 27,000 -1,210 Descending Kansas City Center
Fri 01:46:19 PM 39.1828 -89.0778 279° West 412 474 25,500 -2,565 Descending Kansas City Center
Fri 01:47:21 PM 39.1556 -89.2244 257° West 399 459 21,700 -2,952 Descending Kansas City Center
Fri 01:48:23 PM 39.1014 -89.3494 241° Southwest 399 459 19,400 -2,274 Descending Kansas City Center
Fri 01:49:25 PM 39.0461 -89.4778 241° Southwest 384 442 17,000 -2,129 Descending Kansas City Center
Fri 01:50:27 PM 38.9969 -89.5931 241° Southwest 372 428 15,000 -1,065 Descending Kansas City Center
Fri 01:51:29 PM 38.9572 -89.7167 248° West 348 400 14,800 -968 Descending Kansas City Center
Fri 01:52:31 PM 38.9225 -89.8269 248° West 337 388 13,000 -1,645 Descending Kansas City Center
Fri 01:53:33 PM 38.8903 -89.9264 247° West 327 376 11,400 -1,355 Descending Kansas City Center
Fri 01:54:35 PM 38.8586 -90.0286 248° West 316 364 10,200 -968 Descending Kansas City Center
Fri 01:55:37 PM 38.8303 -90.1178 248° West 281 323 9,400 -1,113 Descending Kansas City Center
Fri 01:56:39 PM 38.8025 -90.2269 252° West 280 322 7,900 -1,161 Descending Kansas City Center
Fri 01:57:41 PM 38.8383 -90.3094 299° West 273 314 7,000 -968 Descending Kansas City Center
Fri 01:58:43 PM 38.8739 -90.3869 301° West 260 299 5,900 -968 Descending Kansas City Center
Fri 01:59:45 PM 38.9097 -90.4653 300° West 258 297 5,000 -532 Descending Kansas City Center
Fri 02:00:47 PM 38.9489 -90.5508 301° West 245 282 4,800 -532 Descending Kansas City Center
Fri 02:01:49 PM 38.9631 -90.6183 285° West 236 272 3,900 -629 Descending Kansas City Center
Fri 02:02:51 PM 38.9136 -90.6047 168° South 214 246 3,500 -432 Descending Kansas City Center
Fri 02:03:54 PM 38.8669 -90.5725 152° Southeast 201 231 3,000 -240 Descending Kansas City Center
Fri 02:04:56 PM 38.8286 -90.5233 135° Southeast 199 229 3,000 -290 Level Kansas City Center
Fri 02:05:58 PM 38.8036 -90.4706 121° Southeast 185 213 2,400 -677 Descending Kansas City Center
Fri 02:07:00 PM 38.7806 -90.4264 124° Southeast 166 191 1,600 -823 Descending Kansas City Center
Fri 02:08:02 PM 38.7578 -90.3781 121° Southeast 143 165 700 -871 Descending Kansas City Center

Login

Don't have an account? Register now (free) for customized features, flight alerts, and more!